Buoy 13516

sailwx.info

Track history (hours):
 
Tides and Currents Weather Stations Pressure Air Temp Water Temp Dewpoint Dewpoint Depression Visibility Wind Speed Wind Dir Waves Ship Positions

Ao Chao Yang 13516

Last reported at 2014-Aug-23 14:06 UTC. Time now 2014-Aug-23 15:23 UTC.
Position N 27°34' W 036°60'.

Length 20 m.

Type: Fishing. MMSI: 412469022.

Water temperature 27.0 ° C

Date/timePositionNaut miles runAvg speedWind from/ knotsBaromVisibWave heightAir tempDewpointWater temp
2014-Aug-23 14:06N 27°34' W 036°60'0 0.1 27.0
2014-Aug-23 13:17N 27°34' W 036°60'0 4.8 27.0
2014-Aug-23 13:11N 27°34' W 036°59'0 0.0 27.0
2014-Aug-23 12:24N 27°34' W 036°59'0 5.5 26.9
2014-Aug-23 12:21N 27°34' W 036°59'0 0.0 26.9
2014-Aug-23 12:18N 27°34' W 036°59'0 0.0 26.9
2014-Aug-23 11:41N 27°34' W 036°59'0 1.3 26.9
2014-Aug-23 11:36N 27°34' W 036°60'0 6.4 26.9
2014-Aug-23 11:33N 27°34' W 036°59'0 0.3 26.9
2014-Aug-23 10:44N 27°34' W 036°59'113.0 26.9
2014-Aug-23 10:41N 27°34' W 036°59'0 0.0 26.9
2014-Aug-23 09:06N 27°34' W 036°59'0 1.4 26.9
2014-Aug-23 08:47N 27°34' W 036°59'0 3.2 26.9
2014-Aug-23 08:44N 27°34' W 036°59'0 3.5 26.9
2014-Aug-23 08:39N 27°34' W 036°59'0 9.0 26.9
2014-Aug-23 08:36N 27°34' W 036°59'0 0.4 26.9
2014-Aug-23 07:23N 27°34' W 036°59'1 1.9 26.9
2014-Aug-23 07:05N 27°34' W 036°58'1 7.4 26.9
2014-Aug-23 06:59N 27°35' W 036°58'1 7.7 26.9
2014-Aug-23 06:53N 27°34' W 036°58'1 1.7 26.9
2014-Aug-23 06:26N 27°35' W 036°58'0 1.8 26.9
2014-Aug-23 06:18N 27°34' W 036°58'0 0.0 26.9
2014-Aug-23 04:44N 27°34' W 036°58'0 0.8 27.0
2014-Aug-23 04:38N 27°34' W 036°58'230.3 26.9
2014-Aug-23 04:35N 27°33' W 036°59'1 0.3 26.9
2014-Aug-23 03:02N 27°33' W 036°59'0 0.2 26.9
2014-Aug-23 01:39N 27°34' W 036°59'0 0.5 27.0
2014-Aug-23 00:53N 27°34' W 036°59'0 0.1 27.0
2014-Aug-23 00:05N 27°34' W 036°59'0 0.5 27.0
2014-Aug-22 23:17N 27°34' W 036°59'1 4.2 27.0
2014-Aug-22 23:08N 27°34' W 036°59'0 0.0 27.0
2014-Aug-22 22:23N 27°34' W 036°59'112.2 27.1
2014-Aug-22 22:20N 27°34' W 036°59'0 0.0 27.1
2014-Aug-22 22:17N 27°34' W 036°59'0 0.0 27.1
2014-Aug-22 21:14N 27°34' W 036°59'0 0.0 27.2
2014-Aug-22 20:45N 27°34' W 036°59'1 1.1 27.3
2014-Aug-22 20:17N 27°33' W 036°59'0 0.0 27.4
2014-Aug-22 19:38N 27°33' W 036°59'0 0.0 27.4
2014-Aug-22 19:08N 27°33' W 036°59'1 6.2 27.4
2014-Aug-22 19:00N 27°33' W 036°58'0 0.0 27.4
2014-Aug-22 18:39N 27°33' W 036°58'0 0.3 27.4
2014-Aug-22 17:56N 27°33' W 036°59'0 0.5 27.4
2014-Aug-22 17:23N 27°33' W 036°59'0 0.0 27.3
2014-Aug-22 16:57N 27°33' W 036°59'0 0.7 27.3
2014-Aug-22 16:18N 27°33' W 036°59'1 0.4 27.2
2014-Aug-22 14:36N 27°33' W 036°58'0 0.0 27.0
2014-Aug-22 14:24N 27°33' W 036°58'1 0.3 27.0
2014-Aug-22 12:50N 27°32' W 036°58'0 0.6 27.0
2014-Aug-22 12:00N 27°32' W 036°58'0 2.1 27.0
2014-Aug-22 11:53N 27°32' W 036°58'0 0.0 27.0
2014-Aug-22 11:06N 27°32' W 036°58'0 1.2 27.0
2014-Aug-22 11:02N 27°32' W 036°58'0 0.0 27.0
2014-Aug-22 09:30N 27°32' W 036°58'0 7.2 26.9
2014-Aug-22 09:26N 27°32' W 036°58'0 1.1 26.9
2014-Aug-22 09:06N 27°32' W 036°58'0 1.7 26.9
2014-Aug-22 08:53N 27°32' W 036°58'1 0.8 26.9
2014-Aug-22 07:50N 27°33' W 036°58'116.3 27.0
2014-Aug-22 07:48N 27°32' W 036°57'0 0.0 27.0
2014-Aug-22 07:27N 27°32' W 036°57'1 4.2 27.0
2014-Aug-22 07:15N 27°33' W 036°58'114.0 27.0
2014-Aug-22 07:11N 27°33' W 036°57'0 0.0 27.0
2014-Aug-22 06:35N 27°33' W 036°57'0 0.0 27.0
2014-Aug-22 06:08N 27°33' W 036°57'0 0.1 27.0
2014-Aug-22 05:35N 27°33' W 036°57'0 0.6 27.0
2014-Aug-22 04:53N 27°33' W 036°57'1 7.9 27.0
2014-Aug-22 04:48N 27°32' W 036°57'0 0.0 27.0
2014-Aug-22 03:15N 27°32' W 036°57'0 4.8
2014-Aug-22 03:14N 27°32' W 036°57'0 3.6 27.0
2014-Aug-22 03:06N 27°32' W 036°58'0 0.0
2014-Aug-22 01:11N 27°32' W 036°58'0 0.0 27.0
2014-Aug-22 00:26N 27°32' W 036°58'0 0.0 27.1
2014-Aug-22 00:23N 27°32' W 036°58'1 0.8 27.1
2014-Aug-21 23:38N 27°31' W 036°58'1 5.2 27.1
2014-Aug-21 23:30N 27°31' W 036°57'0 7.4 27.1
2014-Aug-21 23:27N 27°31' W 036°57'0 0.0 27.1
2014-Aug-21 22:45N 27°31' W 036°57'114.5 27.1
2014-Aug-21 22:39N 27°30' W 036°57'1 1.9 27.1
2014-Aug-21 21:53N 27°31' W 036°57'1 1.8 27.2
2014-Aug-21 21:08N 27°30' W 036°58'0 0.0 27.2
2014-Aug-21 20:26N 27°30' W 036°58'0 0.0
2014-Aug-21 20:08N 27°30' W 036°58'0 0.0 27.2
2014-Aug-21 19:32N 27°30' W 036°58'116.1 27.2
2014-Aug-21 19:29N 27°30' W 036°57'0 0.0 27.2
2014-Aug-21 18:51N 27°30' W 036°57'0 0.3 27.2
2014-Aug-21 18:03N 27°29' W 036°57'1 3.2 27.3
2014-Aug-21 17:50N 27°29' W 036°57'1 1.2 27.3
2014-Aug-21 17:08N 27°29' W 036°56'0 0.0 27.3
2014-Aug-21 16:29N 27°29' W 036°56'0 0.0 27.3
2014-Aug-21 16:26N 27°29' W 036°56'1 0.6 27.3
2014-Aug-21 14:47N 27°28' W 036°56'1 1.4 27.3
2014-Aug-21 13:59N 27°28' W 036°54'1 1.0 27.2
2014-Aug-21 13:08N 27°28' W 036°55'1 1.0 27.2
2014-Aug-21 12:20N 27°28' W 036°54'0 0.0 27.1
2014-Aug-21 12:15N 27°28' W 036°54'0 0.0 27.1
2014-Aug-21 12:12N 27°28' W 036°54'0 0.2 27.1
2014-Aug-21 11:27N 27°28' W 036°54'110.0 27.1
2014-Aug-21 11:21N 27°28' W 036°53'0 0.3 27.1
2014-Aug-21 09:51N 27°28' W 036°53'0 0.0 27.1
2014-Aug-21 09:06N 27°28' W 036°53'0 0.0 27.1
2014-Aug-21 08:14N 27°28' W 036°53'0 0.2 27.1
2014-Aug-21 07:53N 27°28' W 036°53'1 1.6 27.1
2014-Aug-21 07:27N 27°27' W 036°53'1 1.4 27.2
2014-Aug-21 06:45N 27°28' W 036°52'1 2.9 27.2
2014-Aug-21 06:29N 27°28' W 036°53'0 0.0 27.2
2014-Aug-21 06:15N 27°28' W 036°53'0 0.2 27.2
2014-Aug-21 05:45N 27°28' W 036°53'0 0.9 27.2
2014-Aug-21 05:41N 27°28' W 036°53'0 0.0 27.2
2014-Aug-21 05:05N 27°28' W 036°53'0 3.7 27.2
2014-Aug-21 04:59N 27°28' W 036°52'0 0.1 27.2
2014-Aug-21 03:23N 27°28' W 036°52'0 5.3 27.3
2014-Aug-21 03:20N 27°28' W 036°52'0 0.0 27.3
2014-Aug-21 00:45N 27°28' W 036°52'0 0.2 27.4
2014-Aug-20 23:59N 27°28' W 036°53'1 5.2 27.4
2014-Aug-20 23:53N 27°28' W 036°52'0 0.0 27.5
2014-Aug-20 23:06N 27°28' W 036°52'1 6.3 27.5
2014-Aug-20 23:00N 27°28' W 036°51'1 9.2 27.5
2014-Aug-20 22:56N 27°28' W 036°51'0 0.0 27.5
2014-Aug-20 22:24N 27°28' W 036°51'210.1 27.4
2014-Aug-20 22:15N 27°27' W 036°52'0 0.3 27.4
2014-Aug-20 20:50N 27°28' W 036°53'0 2.4 27.6
2014-Aug-20 20:39N 27°27' W 036°52'0 0.2 27.6
2014-Aug-20 19:57N 27°27' W 036°52'0 1.6 27.6
2014-Aug-20 19:53N 27°27' W 036°52'0 6.0 27.7
2014-Aug-20 19:51N 27°27' W 036°52'0 0.0 27.7
2014-Aug-20 19:05N 27°27' W 036°52'0 0.0 27.7
2014-Aug-20 18:59N 27°27' W 036°52'0 0.0 27.7
2014-Aug-20 18:57N 27°27' W 036°52'0 0.7 27.7
2014-Aug-20 18:15N 27°28' W 036°52'1 0.7 27.8
2014-Aug-20 17:18N 27°27' W 036°52'0 0.2 27.8
2014-Aug-20 16:38N 27°27' W 036°52'0 8.7 27.9
2014-Aug-20 16:35N 27°27' W 036°52'0 0.2 27.8
2014-Aug-20 14:59N 27°27' W 036°52'1 0.5 27.7
2014-Aug-20 12:38N 27°27' W 036°50'112.8
2014-Aug-20 12:35N 27°27' W 036°51'0 0.0 27.4
2014-Aug-20 11:45N 27°27' W 036°51'0 7.3 27.3
2014-Aug-20 11:42N 27°27' W 036°51'0 0.0 27.3
2014-Aug-20 11:00N 27°27' W 036°51'0 0.0 27.3
2014-Aug-20 10:06N 27°27' W 036°51'0 0.2 27.2
2014-Aug-20 08:33N 27°27' W 036°51'0 0.4 27.3
2014-Aug-20 07:36N 27°27' W 036°50'1 0.9 27.3
2014-Aug-20 07:00N 27°26' W 036°51'0 1.5 27.4
2014-Aug-20 06:53N 27°26' W 036°51'0 4.3 27.4
2014-Aug-20 06:50N 27°26' W 036°51'0 0.4 27.4
2014-Aug-20 05:53N 27°27' W 036°51'116.1 27.4
2014-Aug-20 05:51N 27°26' W 036°51'0 0.0 27.4
2014-Aug-20 05:17N 27°26' W 036°51'0 0.9 27.4
2014-Aug-20 05:08N 27°27' W 036°50'0 0.0
2014-Aug-20 03:38N 27°27' W 036°50'013.5
2014-Aug-20 03:36N 27°26' W 036°51'0 0.0 27.4
2014-Aug-20 01:06N 27°26' W 036°51'0 4.3 27.6
2014-Aug-20 01:00N 27°26' W 036°50'0 0.2 27.6
2014-Aug-19 23:27N 27°26' W 036°50'0 3.8 27.7
2014-Aug-19 23:21N 27°26' W 036°50'0 0.0 27.7
2014-Aug-19 22:53N 27°26' W 036°50'0 0.0 27.7
2014-Aug-19 22:38N 27°26' W 036°50'0 0.0 27.7
2014-Aug-19 22:35N 27°26' W 036°50'0 0.6 27.7
2014-Aug-19 22:30N 27°26' W 036°50'0 0.2 27.7
2014-Aug-19 21:44N 27°26' W 036°50'0 0.0 27.7
2014-Aug-19 21:41N 27°26' W 036°50'0 0.1 27.7
2014-Aug-19 19:32N 27°25' W 036°50'0 0.0 28.0
2014-Aug-19 19:14N 27°25' W 036°50'0 0.2 28.0
2014-Aug-19 18:36N 27°25' W 036°50'1 0.7 28.0
2014-Aug-19 17:32N 27°25' W 036°50'0 0.3 28.1
2014-Aug-19 16:51N 27°25' W 036°49'1 0.5 28.1
2014-Aug-19 15:11N 27°24' W 036°50'0 4.8 27.7
2014-Aug-19 15:08N 27°24' W 036°50'0 0.2 27.6
2014-Aug-19 13:48N 27°24' W 036°50'0 0.0 27.5
2014-Aug-19 13:05N 27°24' W 036°50'0 2.5 27.2
2014-Aug-19 12:53N 27°24' W 036°49'0 0.1
2014-Aug-19 12:08N 27°24' W 036°49'0 1.6 27.0
2014-Aug-19 12:05N 27°24' W 036°49'0 3.2 27.0
2014-Aug-19 12:02N 27°24' W 036°49'0 0.0 27.0
2014-Aug-19 11:21N 27°24' W 036°49'111.7 27.0
2014-Aug-19 11:17N 27°24' W 036°48'1 0.7 27.0
2014-Aug-19 10:24N 27°24' W 036°48'0 0.0 26.9
2014-Aug-19 09:02N 27°24' W 036°48'0 0.0 26.9
2014-Aug-19 09:00N 27°24' W 036°48'1 0.5 26.9
2014-Aug-19 07:48N 27°24' W 036°48'0 6.5 26.9
2014-Aug-19 07:44N 27°24' W 036°48'0 0.0 26.9
2014-Aug-19 07:23N 27°24' W 036°48'0 3.6 26.9
2014-Aug-19 07:21N 27°24' W 036°48'0 0.1 26.9
2014-Aug-19 06:06N 27°24' W 036°48'0 0.7
2014-Aug-19 05:27N 27°24' W 036°47'0 1.3 27.0
2014-Aug-19 05:21N 27°24' W 036°47'0 0.0 27.0
2014-Aug-19 03:50N 27°24' W 036°47'0 2.4 27.3
2014-Aug-19 03:47N 27°24' W 036°48'110.0 27.3
2014-Aug-19 03:42N 27°23' W 036°48'0 0.1 27.3
2014-Aug-19 01:23N 27°23' W 036°48'1 0.7 27.4
2014-Aug-19 00:36N 27°23' W 036°47'0 0.0 27.5
2014-Aug-18 23:48N 27°23' W 036°47'0 0.5 27.6
2014-Aug-18 22:53N 27°23' W 036°48'0 9.6
2014-Aug-18 22:51N 27°23' W 036°47'0 0.5 27.7
2014-Aug-18 22:06N 27°24' W 036°47'0 3.8 27.9
2014-Aug-18 21:59N 27°23' W 036°48'0 0.0 27.9
2014-Aug-18 21:50N 27°23' W 036°48'0 0.2 28.0
2014-Aug-18 20:45N 27°23' W 036°48'0 0.4 28.4
2014-Aug-18 20:08N 27°23' W 036°48'0 1.1 28.7
2014-Aug-18 20:02N 27°23' W 036°48'0 0.0 28.7
2014-Aug-18 19:24N 27°23' W 036°48'1 2.5 29.1
2014-Aug-18 19:06N 27°22' W 036°47'0 0.0 28.7
2014-Aug-18 17:44N 27°22' W 036°47'0 0.3 29.0
2014-Aug-18 17:23N 27°22' W 036°47'0 0.5 29.0
2014-Aug-18 17:02N 27°22' W 036°47'1 0.4 28.9
2014-Aug-18 15:21N 27°22' W 036°47'1 0.8 28.5
2014-Aug-18 14:08N 27°21' W 036°46'0 0.0 28.3
2014-Aug-18 13:23N 27°21' W 036°46'0 3.2 27.9
2014-Aug-18 13:20N 27°21' W 036°46'0 0.3 27.9
2014-Aug-18 12:29N 27°21' W 036°46'1 7.8 27.6
2014-Aug-18 12:23N 27°21' W 036°45'116.1 27.6
2014-Aug-18 12:21N 27°21' W 036°45'0 0.0 27.6
2014-Aug-18 11:38N 27°21' W 036°45'0 1.6
2014-Aug-18 11:36N 27°21' W 036°46'0 0.0 27.4
2014-Aug-18 10:50N 27°21' W 036°46'1 6.4 27.3
2014-Aug-18 10:45N 27°22' W 036°45'0 0.2 27.3
2014-Aug-18 09:30N 27°22' W 036°45'0 3.8 27.2
2014-Aug-18 09:24N 27°22' W 036°44'0 0.1 27.2
2014-Aug-18 07:57N 27°22' W 036°44'0 2.4 27.2
2014-Aug-18 07:53N 27°22' W 036°44'0 0.0
2014-Aug-18 07:47N 27°22' W 036°44'1 0.4 27.3
2014-Aug-18 06:20N 27°22' W 036°44'0 0.0 27.4
2014-Aug-18 06:08N 27°22' W 036°44'0 0.3
2014-Aug-18 05:38N 27°22' W 036°44'0 0.0
2014-Aug-18 05:36N 27°22' W 036°44'1 0.5 27.5
2014-Aug-18 04:00N 27°23' W 036°44'0 0.0 27.6
2014-Aug-18 03:53N 27°23' W 036°44'0 6.6 27.6
2014-Aug-18 03:51N 27°22' W 036°45'0 0.1 27.6
2014-Aug-18 00:59N 27°22' W 036°45'0 0.0 27.6
2014-Aug-18 00:08N 27°22' W 036°45'0 0.0
2014-Aug-18 00:06N 27°22' W 036°45'0 0.2 27.7
2014-Aug-17 23:20N 27°22' W 036°45'0 5.2 27.9
2014-Aug-17 23:15N 27°22' W 036°45'0 0.3 27.9
2014-Aug-17 22:23N 27°22' W 036°45'0 2.4 28.2
2014-Aug-17 22:20N 27°22' W 036°45'0 0.0 28.2
2014-Aug-17 21:08N 27°22' W 036°45'1 1.5 28.3
2014-Aug-17 20:33N 27°21' W 036°45'0 0.0 28.4
2014-Aug-17 19:36N 27°21' W 036°45'0 4.9 28.5
2014-Aug-17 19:33N 27°21' W 036°45'0 1.8 28.5
2014-Aug-17 19:29N 27°21' W 036°45'0 0.0 28.5
2014-Aug-17 17:53N 27°21' W 036°45'0 0.0 29.2
2014-Aug-17 17:50N 27°21' W 036°45'0 6.6 29.2
2014-Aug-17 17:48N 27°21' W 036°45'0 0.0 29.2
2014-Aug-17 17:11N 27°21' W 036°45'0 0.0 29.4
2014-Aug-17 17:08N 27°21' W 036°45'1 0.4 29.2
2014-Aug-17 15:32N 27°21' W 036°45'1 0.3 28.6
2014-Aug-17 13:44N 27°20' W 036°44'0 2.6 28.1
2014-Aug-17 13:38N 27°21' W 036°44'011.0
2014-Aug-17 13:36N 27°20' W 036°44'0 0.0 28.0
2014-Aug-17 12:48N 27°20' W 036°44'0 5.5 27.7
2014-Aug-17 12:44N 27°20' W 036°44'0 0.0 27.7
2014-Aug-17 12:03N 27°20' W 036°44'0 1.5 27.4
2014-Aug-17 11:56N 27°20' W 036°44'0 0.1 27.4
2014-Aug-17 11:08N 27°20' W 036°44'0 3.4 27.1
2014-Aug-17 11:05N 27°20' W 036°44'1 1.2 27.1
2014-Aug-17 09:50N 27°20' W 036°43'0 0.0 27.0
2014-Aug-17 08:24N 27°20' W 036°43'0 0.2 27.0
2014-Aug-17 08:08N 27°20' W 036°42'0 3.6 27.0
2014-Aug-17 08:06N 27°20' W 036°42'0 0.2 27.1
2014-Aug-17 06:32N 27°20' W 036°42'0 3.5 27.2
2014-Aug-17 06:27N 27°20' W 036°42'0 0.5 27.2
2014-Aug-17 05:51N 27°20' W 036°42'0 9.0 27.3
2014-Aug-17 05:48N 27°20' W 036°42'0 0.0 27.3
2014-Aug-17 04:08N 27°20' W 036°42'0 1.2 27.6
2014-Aug-17 04:02N 27°20' W 036°42'0 0.0 27.6
2014-Aug-17 01:18N 27°20' W 036°42'0 0.0 27.7
2014-Aug-17 00:23N 27°20' W 036°42'0 0.5 27.9
2014-Aug-16 23:36N 27°21' W 036°43'0 0.0 28.0
2014-Aug-16 23:33N 27°21' W 036°43'0 2.6 28.0
2014-Aug-16 23:30N 27°21' W 036°42'0 0.3 28.0
2014-Aug-16 22:48N 27°21' W 036°43'0 2.4 28.0
2014-Aug-16 22:44N 27°20' W 036°43'0 3.9 28.0
2014-Aug-16 22:39N 27°20' W 036°43'0 0.0 28.0
2014-Aug-16 21:59N 27°20' W 036°43'0 0.4 28.1
2014-Aug-16 21:15N 27°20' W 036°43'0 1.9 28.1
2014-Aug-16 21:03N 27°20' W 036°43'1 0.5 28.2
2014-Aug-16 19:51N 27°20' W 036°43'0 0.0 28.5
2014-Aug-16 19:45N 27°20' W 036°43'0 0.0 28.5
2014-Aug-16 19:27N 27°20' W 036°43'0 0.2 28.8
2014-Aug-16 18:14N 27°20' W 036°43'0 0.6 28.7
2014-Aug-16 18:06N 27°20' W 036°43'1 1.4 28.8
2014-Aug-16 17:23N 27°19' W 036°43'0 3.3 28.9
2014-Aug-16 17:18N 27°19' W 036°42'0 0.0 28.9
2014-Aug-16 15:44N 27°19' W 036°42'0 0.2 29.0
2014-Aug-16 13:59N 27°19' W 036°42'0 0.0 28.7
2014-Aug-16 13:56N 27°19' W 036°42'0 0.0
2014-Aug-16 12:23N 27°19' W 036°42'0 4.4 27.4
2014-Aug-16 12:20N 27°19' W 036°42'0 5.8 27.2
2014-Aug-16 12:17N 27°19' W 036°42'0 0.2 27.2
2014-Aug-16 11:26N 27°19' W 036°42'0 0.0 26.9
2014-Aug-16 10:44N 27°19' W 036°42'1 8.7 26.7
2014-Aug-16 10:38N 27°18' W 036°42'0 0.0
2014-Aug-16 08:53N 27°18' W 036°42'0 1.0 26.6
2014-Aug-16 08:35N 27°18' W 036°41'0 2.2 26.6
2014-Aug-16 08:26N 27°18' W 036°42'1 6.3 26.6
2014-Aug-16 08:18N 27°17' W 036°41'0 0.0 26.6
2014-Aug-16 07:15N 27°17' W 036°41'0 0.9 26.6
2014-Aug-16 06:57N 27°18' W 036°41'0 1.6 26.6
2014-Aug-16 06:51N 27°17' W 036°41'0 0.0 26.6
2014-Aug-16 06:44N 27°17' W 036°41'1 4.1 26.6
2014-Aug-16 06:36N 27°18' W 036°40'0 0.0 26.6
2014-Aug-16 06:00N 27°18' W 036°40'0 0.0 26.6
2014-Aug-16 05:57N 27°18' W 036°40'0 4.8 26.6
2014-Aug-16 05:53N 27°17' W 036°40'0 0.0
2014-Aug-16 04:20N 27°17' W 036°40'1 5.7 26.7
2014-Aug-16 04:12N 27°18' W 036°39'0 0.0 26.7
2014-Aug-16 00:50N 27°18' W 036°39'0 0.2 26.9
2014-Aug-16 00:02N 27°18' W 036°39'0 5.3 27.0
2014-Aug-15 23:59N 27°18' W 036°40'0 1.6 27.0
2014-Aug-15 23:53N 27°18' W 036°40'0 0.0 27.0
2014-Aug-15 23:08N 27°18' W 036°40'0 0.0 27.2
2014-Aug-15 23:03N 27°18' W 036°40'0 7.6 27.2
2014-Aug-15 23:00N 27°18' W 036°39'0 0.0 27.2
2014-Aug-15 22:21N 27°18' W 036°39'0 1.3 27.3
2014-Aug-15 22:15N 27°18' W 036°39'0 0.0 27.3
2014-Aug-15 21:44N 27°18' W 036°39'1 0.5 27.6
2014-Aug-15 20:18N 27°18' W 036°40'0 1.3 28.6
2014-Aug-15 19:57N 27°18' W 036°41'022.7 28.5
2014-Aug-15 19:56N 27°18' W 036°40'0 0.0 28.5
2014-Aug-15 18:36N 27°18' W 036°40'0 1.2 28.5
2014-Aug-15 18:18N 27°18' W 036°41'0 0.7 28.6
2014-Aug-15 17:33N 27°17' W 036°40'0 0.0 29.0
2014-Aug-15 16:35N 27°17' W 036°40'0 0.0 29.4
2014-Aug-15 15:53N 27°17' W 036°40'1 0.3 28.7
2014-Aug-15 14:11N 27°17' W 036°39'0 0.3 27.8
2014-Aug-15 12:42N 27°17' W 036°39'0 4.8 27.0
2014-Aug-15 12:36N 27°17' W 036°40'0 0.1 26.9
2014-Aug-15 11:51N 27°17' W 036°40'0 4.8
2014-Aug-15 11:50N 27°17' W 036°40'0 1.0 26.7
2014-Aug-15 11:45N 27°17' W 036°40'0 0.0 26.7
2014-Aug-15 11:05N 27°17' W 036°40'1 6.1 26.5
2014-Aug-15 10:57N 27°16' W 036°39'0 0.0 26.5
2014-Aug-15 09:26N 27°16' W 036°39'0 0.8 26.5
2014-Aug-15 09:03N 27°16' W 036°39'0 0.5 26.5
2014-Aug-15 08:35N 27°16' W 036°39'1 0.9 26.5
2014-Aug-15 07:47N 27°16' W 036°39'0 0.6 26.5
2014-Aug-15 07:23N 27°15' W 036°39'0 0.3 26.5
2014-Aug-15 06:53N 27°16' W 036°38'0 1.9 26.5
2014-Aug-15 06:47N 27°15' W 036°38'0 0.0 26.5
2014-Aug-15 06:14N 27°15' W 036°38'1 7.7 26.5
2014-Aug-15 06:06N 27°16' W 036°37'0 0.0 26.5
2014-Aug-15 05:12N 27°16' W 036°37'0 0.0 26.5
2014-Aug-15 04:33N 27°16' W 036°37'0 2.1 26.5
2014-Aug-15 04:30N 27°16' W 036°37'0 6.7 26.5
2014-Aug-15 04:26N 27°15' W 036°37'0 0.0 26.5
2014-Aug-15 04:23N 27°15' W 036°37'0 0.0 26.5
2014-Aug-15 02:51N 27°15' W 036°37'0 0.1 26.6
2014-Aug-15 01:08N 27°15' W 036°36'126.6 26.6
2014-Aug-15 01:05N 27°16' W 036°35'0 0.0 26.6
2014-Aug-15 00:23N 27°16' W 036°35'0 0.5 26.6
2014-Aug-14 23:30N 27°16' W 036°36'1 5.7 26.6
2014-Aug-14 23:24N 27°16' W 036°36'0 0.1 26.6
2014-Aug-14 22:39N 27°16' W 036°37'0 3.6 26.6
2014-Aug-14 22:33N 27°16' W 036°37'0 0.0 26.6
2014-Aug-14 22:15N 27°16' W 036°37'0 0.5 26.7
2014-Aug-14 21:48N 27°16' W 036°37'0 0.4 26.7
2014-Aug-14 20:44N 27°16' W 036°36'1 1.9 26.8
2014-Aug-14 20:26N 27°16' W 036°37'1 3.8 26.8
2014-Aug-14 20:08N 27°16' W 036°38'0 0.0 26.8
2014-Aug-14 19:05N 27°16' W 036°38'1 0.9 26.9
2014-Aug-14 18:30N 27°16' W 036°37'0 0.5 26.9
2014-Aug-14 17:44N 27°16' W 036°37'0 0.0 26.9
2014-Aug-14 17:20N 27°16' W 036°37'1 1.6 26.9
2014-Aug-14 16:47N 27°16' W 036°38'1 1.8 26.8
2014-Aug-14 16:06N 27°15' W 036°39'2 1.2 26.7
2014-Aug-14 14:23N 27°15' W 036°37'0 0.0 26.7
2014-Aug-14 13:53N 27°15' W 036°37'0 0.0 26.6
2014-Aug-14 13:08N 27°15' W 036°37'1 1.0 26.6
2014-Aug-14 12:08N 27°15' W 036°36'117.1 26.5
2014-Aug-14 12:05N 27°15' W 036°37'0 0.0 26.5
2014-Aug-14 11:26N 27°15' W 036°37'0 6.4 26.4
2014-Aug-14 11:23N 27°15' W 036°37'115.2 26.4
2014-Aug-14 11:20N 27°14' W 036°36'0 0.2 26.4
2014-Aug-14 09:53N 27°14' W 036°36'0 1.2 26.4
2014-Aug-14 09:29N 27°14' W 036°37'1 3.9 26.4
2014-Aug-14 09:21N 27°14' W 036°36'0 0.0 26.4
2014-Aug-14 08:48N 27°14' W 036°36'0 3.4 26.4
2014-Aug-14 08:45N 27°14' W 036°37'0 0.6 26.4
2014-Aug-14 08:18N 27°14' W 036°36'0 0.7 26.4
2014-Aug-14 07:47N 27°14' W 036°36'1 1.1 26.4
2014-Aug-14 07:06N 27°13' W 036°35'0 3.8 26.4
2014-Aug-14 07:00N 27°14' W 036°35'0 0.0 26.4
2014-Aug-14 06:38N 27°14' W 036°35'1 2.6 26.4
2014-Aug-14 06:24N 27°13' W 036°35'0 0.0 26.4
2014-Aug-14 06:08N 27°13' W 036°35'0 0.0 26.4
2014-Aug-14 05:27N 27°13' W 036°35'220.0 26.4
2014-Aug-14 05:20N 27°15' W 036°33'0 0.0 26.4
2014-Aug-14 04:42N 27°15' W 036°33'0 0.0 26.4
2014-Aug-14 04:36N 27°15' W 036°33'0 0.0 26.4
2014-Aug-14 04:33N 27°15' W 036°33'0 0.0 26.4
2014-Aug-14 03:03N 27°15' W 036°33'1 0.6 26.5
2014-Aug-14 01:23N 27°14' W 036°34'0 0.7
2014-Aug-14 00:42N 27°14' W 036°34'0 0.3 26.6
2014-Aug-13 23:51N 27°14' W 036°34'0 0.2 26.6
2014-Aug-13 23:02N 27°14' W 036°34'0 1.0 26.6
2014-Aug-13 22:57N 27°14' W 036°34'0 3.1 26.6
2014-Aug-13 22:53N 27°14' W 036°34'0 0.0 26.6
2014-Aug-13 22:08N 27°14' W 036°34'0 7.3 26.6
2014-Aug-13 22:05N 27°14' W 036°34'1 0.5 26.6
2014-Aug-13 21:05N 27°13' W 036°34'0 0.0 26.7
2014-Aug-13 20:57N 27°13' W 036°34'0 0.4 26.7
2014-Aug-13 20:18N 27°14' W 036°34'1 0.8 26.7
2014-Aug-13 19:27N 27°14' W 036°33'0 0.0 26.7
2014-Aug-13 19:21N 27°14' W 036°33'1 0.9 26.7
2014-Aug-13 18:38N 27°14' W 036°34'0 0.3 26.8
2014-Aug-13 17:53N 27°14' W 036°34'1 9.6 26.9
2014-Aug-13 17:48N 27°13' W 036°33'0 0.0 26.9
2014-Aug-13 16:59N 27°13' W 036°33'0 0.5 26.9
2014-Aug-13 16:17N 27°13' W 036°33'0 0.0 26.9
2014-Aug-13 16:14N 27°13' W 036°33'1 0.4 26.9
2014-Aug-13 14:35N 27°13' W 036°34'0 1.3 26.8
2014-Aug-13 14:12N 27°13' W 036°33'   26.8
Track history (hours):
 
Tides and Currents Weather Stations Pressure Air Temp Water Temp Dewpoint Dewpoint Depression Visibility Wind Speed Wind Dir Waves Ship Positions

Ao Chao Yang 13516

Last reported at 2014-Aug-23 14:06 UTC. Time now 2014-Aug-23 15:23 UTC.
Position N 27°34' W 036°60'.

Length 20 m.

Type: Fishing. MMSI: 412469022.

Water temperature 27.0 ° C

Date/timePositionNaut miles runAvg speedWind from/ knotsBaromVisibWave heightAir tempDewpointWater temp
2014-Aug-23 14:06N 27°34' W 036°60'0 0.1 27.0
2014-Aug-23 13:17N 27°34' W 036°60'0 4.8 27.0
2014-Aug-23 13:11N 27°34' W 036°59'0 0.0 27.0
2014-Aug-23 12:24N 27°34' W 036°59'0 5.5 26.9
2014-Aug-23 12:21N 27°34' W 036°59'0 0.0 26.9
2014-Aug-23 12:18N 27°34' W 036°59'0 0.0 26.9
2014-Aug-23 11:41N 27°34' W 036°59'0 1.3 26.9
2014-Aug-23 11:36N 27°34' W 036°60'0 6.4 26.9
2014-Aug-23 11:33N 27°34' W 036°59'0 0.3 26.9
2014-Aug-23 10:44N 27°34' W 036°59'113.0 26.9
2014-Aug-23 10:41N 27°34' W 036°59'0 0.0 26.9
2014-Aug-23 09:06N 27°34' W 036°59'0 1.4 26.9
2014-Aug-23 08:47N 27°34' W 036°59'0 3.2 26.9
2014-Aug-23 08:44N 27°34' W 036°59'0 3.5 26.9
2014-Aug-23 08:39N 27°34' W 036°59'0 9.0 26.9
2014-Aug-23 08:36N 27°34' W 036°59'0 0.4 26.9
2014-Aug-23 07:23N 27°34' W 036°59'1 1.9 26.9
2014-Aug-23 07:05N 27°34' W 036°58'1 7.4 26.9
2014-Aug-23 06:59N 27°35' W 036°58'1 7.7 26.9
2014-Aug-23 06:53N 27°34' W 036°58'1 1.7 26.9
2014-Aug-23 06:26N 27°35' W 036°58'0 1.8 26.9
2014-Aug-23 06:18N 27°34' W 036°58'0 0.0 26.9
2014-Aug-23 04:44N 27°34' W 036°58'0 0.8 27.0
2014-Aug-23 04:38N 27°34' W 036°58'230.3 26.9
2014-Aug-23 04:35N 27°33' W 036°59'1 0.3 26.9
2014-Aug-23 03:02N 27°33' W 036°59'0 0.2 26.9
2014-Aug-23 01:39N 27°34' W 036°59'0 0.5 27.0
2014-Aug-23 00:53N 27°34' W 036°59'0 0.1 27.0
2014-Aug-23 00:05N 27°34' W 036°59'0 0.5 27.0
2014-Aug-22 23:17N 27°34' W 036°59'1 4.2 27.0
2014-Aug-22 23:08N 27°34' W 036°59'0 0.0 27.0
2014-Aug-22 22:23N 27°34' W 036°59'112.2 27.1
2014-Aug-22 22:20N 27°34' W 036°59'0 0.0 27.1
2014-Aug-22 22:17N 27°34' W 036°59'0 0.0 27.1
2014-Aug-22 21:14N 27°34' W 036°59'0 0.0 27.2
2014-Aug-22 20:45N 27°34' W 036°59'1 1.1 27.3
2014-Aug-22 20:17N 27°33' W 036°59'0 0.0 27.4
2014-Aug-22 19:38N 27°33' W 036°59'0 0.0 27.4
2014-Aug-22 19:08N 27°33' W 036°59'1 6.2 27.4
2014-Aug-22 19:00N 27°33' W 036°58'0 0.0 27.4
2014-Aug-22 18:39N 27°33' W 036°58'0 0.3 27.4
2014-Aug-22 17:56N 27°33' W 036°59'0 0.5 27.4
2014-Aug-22 17:23N 27°33' W 036°59'0 0.0 27.3
2014-Aug-22 16:57N 27°33' W 036°59'0 0.7 27.3
2014-Aug-22 16:18N 27°33' W 036°59'1 0.4 27.2
2014-Aug-22 14:36N 27°33' W 036°58'0 0.0 27.0
2014-Aug-22 14:24N 27°33' W 036°58'1 0.3 27.0
2014-Aug-22 12:50N 27°32' W 036°58'0 0.6 27.0
2014-Aug-22 12:00N 27°32' W 036°58'0 2.1 27.0
2014-Aug-22 11:53N 27°32' W 036°58'0 0.0 27.0
2014-Aug-22 11:06N 27°32' W 036°58'0 1.2 27.0
2014-Aug-22 11:02N 27°32' W 036°58'0 0.0 27.0
2014-Aug-22 09:30N 27°32' W 036°58'0 7.2 26.9
2014-Aug-22 09:26N 27°32' W 036°58'0 1.1 26.9
2014-Aug-22 09:06N 27°32' W 036°58'0 1.7 26.9
2014-Aug-22 08:53N 27°32' W 036°58'1 0.8 26.9
2014-Aug-22 07:50N 27°33' W 036°58'116.3 27.0
2014-Aug-22 07:48N 27°32' W 036°57'0 0.0 27.0
2014-Aug-22 07:27N 27°32' W 036°57'1 4.2 27.0
2014-Aug-22 07:15N 27°33' W 036°58'114.0 27.0
2014-Aug-22 07:11N 27°33' W 036°57'0 0.0 27.0
2014-Aug-22 06:35N 27°33' W 036°57'0 0.0 27.0
2014-Aug-22 06:08N 27°33' W 036°57'0 0.1 27.0
2014-Aug-22 05:35N 27°33' W 036°57'0 0.6 27.0
2014-Aug-22 04:53N 27°33' W 036°57'1 7.9 27.0
2014-Aug-22 04:48N 27°32' W 036°57'0 0.0 27.0
2014-Aug-22 03:15N 27°32' W 036°57'0 4.8
2014-Aug-22 03:14N 27°32' W 036°57'0 3.6 27.0
2014-Aug-22 03:06N 27°32' W 036°58'0 0.0
2014-Aug-22 01:11N 27°32' W 036°58'0 0.0 27.0
2014-Aug-22 00:26N 27°32' W 036°58'0 0.0 27.1
2014-Aug-22 00:23N 27°32' W 036°58'1 0.8 27.1
2014-Aug-21 23:38N 27°31' W 036°58'1 5.2 27.1
2014-Aug-21 23:30N 27°31' W 036°57'0 7.4 27.1
2014-Aug-21 23:27N 27°31' W 036°57'0 0.0 27.1
2014-Aug-21 22:45N 27°31' W 036°57'114.5 27.1
2014-Aug-21 22:39N 27°30' W 036°57'1 1.9 27.1
2014-Aug-21 21:53N 27°31' W 036°57'1 1.8 27.2
2014-Aug-21 21:08N 27°30' W 036°58'0 0.0 27.2
2014-Aug-21 20:26N 27°30' W 036°58'0 0.0
2014-Aug-21 20:08N 27°30' W 036°58'0 0.0 27.2
2014-Aug-21 19:32N 27°30' W 036°58'116.1 27.2
2014-Aug-21 19:29N 27°30' W 036°57'0 0.0 27.2
2014-Aug-21 18:51N 27°30' W 036°57'0 0.3 27.2
2014-Aug-21 18:03N 27°29' W 036°57'1 3.2 27.3
2014-Aug-21 17:50N 27°29' W 036°57'1 1.2 27.3
2014-Aug-21 17:08N 27°29' W 036°56'0 0.0 27.3
2014-Aug-21 16:29N 27°29' W 036°56'0 0.0 27.3
2014-Aug-21 16:26N 27°29' W 036°56'1 0.6 27.3
2014-Aug-21 14:47N 27°28' W 036°56'1 1.4 27.3
2014-Aug-21 13:59N 27°28' W 036°54'1 1.0 27.2
2014-Aug-21 13:08N 27°28' W 036°55'1 1.0 27.2
2014-Aug-21 12:20N 27°28' W 036°54'0 0.0 27.1
2014-Aug-21 12:15N 27°28' W 036°54'0 0.0 27.1
2014-Aug-21 12:12N 27°28' W 036°54'0 0.2 27.1
2014-Aug-21 11:27N 27°28' W 036°54'110.0 27.1
2014-Aug-21 11:21N 27°28' W 036°53'0 0.3 27.1
2014-Aug-21 09:51N 27°28' W 036°53'0 0.0 27.1
2014-Aug-21 09:06N 27°28' W 036°53'0 0.0 27.1
2014-Aug-21 08:14N 27°28' W 036°53'0 0.2 27.1
2014-Aug-21 07:53N 27°28' W 036°53'1 1.6 27.1
2014-Aug-21 07:27N 27°27' W 036°53'1 1.4 27.2
2014-Aug-21 06:45N 27°28' W 036°52'1 2.9 27.2
2014-Aug-21 06:29N 27°28' W 036°53'0 0.0 27.2
2014-Aug-21 06:15N 27°28' W 036°53'0 0.2 27.2
2014-Aug-21 05:45N 27°28' W 036°53'0 0.9 27.2
2014-Aug-21 05:41N 27°28' W 036°53'0 0.0 27.2
2014-Aug-21 05:05N 27°28' W 036°53'0 3.7 27.2
2014-Aug-21 04:59N 27°28' W 036°52'0 0.1 27.2
2014-Aug-21 03:23N 27°28' W 036°52'0 5.3 27.3
2014-Aug-21 03:20N 27°28' W 036°52'0 0.0 27.3
2014-Aug-21 00:45N 27°28' W 036°52'0 0.2 27.4
2014-Aug-20 23:59N 27°28' W 036°53'1 5.2 27.4
2014-Aug-20 23:53N 27°28' W 036°52'0 0.0 27.5
2014-Aug-20 23:06N 27°28' W 036°52'1 6.3 27.5
2014-Aug-20 23:00N 27°28' W 036°51'1 9.2 27.5
2014-Aug-20 22:56N 27°28' W 036°51'0 0.0 27.5
2014-Aug-20 22:24N 27°28' W 036°51'210.1 27.4
2014-Aug-20 22:15N 27°27' W 036°52'0 0.3 27.4
2014-Aug-20 20:50N 27°28' W 036°53'0 2.4 27.6
2014-Aug-20 20:39N 27°27' W 036°52'0 0.2 27.6
2014-Aug-20 19:57N 27°27' W 036°52'0 1.6 27.6
2014-Aug-20 19:53N 27°27' W 036°52'0 6.0 27.7
2014-Aug-20 19:51N 27°27' W 036°52'0 0.0 27.7
2014-Aug-20 19:05N 27°27' W 036°52'0 0.0 27.7
2014-Aug-20 18:59N 27°27' W 036°52'0 0.0 27.7
2014-Aug-20 18:57N 27°27' W 036°52'0 0.7 27.7
2014-Aug-20 18:15N 27°28' W 036°52'1 0.7 27.8
2014-Aug-20 17:18N 27°27' W 036°52'0 0.2 27.8
2014-Aug-20 16:38N 27°27' W 036°52'0 8.7 27.9
2014-Aug-20 16:35N 27°27' W 036°52'0 0.2 27.8
2014-Aug-20 14:59N 27°27' W 036°52'1 0.5 27.7
2014-Aug-20 12:38N 27°27' W 036°50'112.8
2014-Aug-20 12:35N 27°27' W 036°51'0 0.0 27.4
2014-Aug-20 11:45N 27°27' W 036°51'0 7.3 27.3
2014-Aug-20 11:42N 27°27' W 036°51'0 0.0 27.3
2014-Aug-20 11:00N 27°27' W 036°51'0 0.0 27.3
2014-Aug-20 10:06N 27°27' W 036°51'0 0.2 27.2
2014-Aug-20 08:33N 27°27' W 036°51'0 0.4 27.3
2014-Aug-20 07:36N 27°27' W 036°50'1 0.9 27.3
2014-Aug-20 07:00N 27°26' W 036°51'0 1.5 27.4
2014-Aug-20 06:53N 27°26' W 036°51'0 4.3 27.4
2014-Aug-20 06:50N 27°26' W 036°51'0 0.4 27.4
2014-Aug-20 05:53N 27°27' W 036°51'116.1 27.4
2014-Aug-20 05:51N 27°26' W 036°51'0 0.0 27.4
2014-Aug-20 05:17N 27°26' W 036°51'0 0.9 27.4
2014-Aug-20 05:08N 27°27' W 036°50'0 0.0
2014-Aug-20 03:38N 27°27' W 036°50'013.5
2014-Aug-20 03:36N 27°26' W 036°51'0 0.0 27.4
2014-Aug-20 01:06N 27°26' W 036°51'0 4.3 27.6
2014-Aug-20 01:00N 27°26' W 036°50'0 0.2 27.6
2014-Aug-19 23:27N 27°26' W 036°50'0 3.8 27.7
2014-Aug-19 23:21N 27°26' W 036°50'0 0.0 27.7
2014-Aug-19 22:53N 27°26' W 036°50'0 0.0 27.7
2014-Aug-19 22:38N 27°26' W 036°50'0 0.0 27.7
2014-Aug-19 22:35N 27°26' W 036°50'0 0.6 27.7
2014-Aug-19 22:30N 27°26' W 036°50'0 0.2 27.7
2014-Aug-19 21:44N 27°26' W 036°50'0 0.0 27.7
2014-Aug-19 21:41N 27°26' W 036°50'0 0.1 27.7
2014-Aug-19 19:32N 27°25' W 036°50'0 0.0 28.0
2014-Aug-19 19:14N 27°25' W 036°50'0 0.2 28.0
2014-Aug-19 18:36N 27°25' W 036°50'1 0.7 28.0
2014-Aug-19 17:32N 27°25' W 036°50'0 0.3 28.1
2014-Aug-19 16:51N 27°25' W 036°49'1 0.5 28.1
2014-Aug-19 15:11N 27°24' W 036°50'0 4.8 27.7
2014-Aug-19 15:08N 27°24' W 036°50'0 0.2 27.6
2014-Aug-19 13:48N 27°24' W 036°50'0 0.0 27.5
2014-Aug-19 13:05N 27°24' W 036°50'0 2.5 27.2
2014-Aug-19 12:53N 27°24' W 036°49'0 0.1
2014-Aug-19 12:08N 27°24' W 036°49'0 1.6 27.0
2014-Aug-19 12:05N 27°24' W 036°49'0 3.2 27.0
2014-Aug-19 12:02N 27°24' W 036°49'0 0.0 27.0
2014-Aug-19 11:21N 27°24' W 036°49'111.7 27.0
2014-Aug-19 11:17N 27°24' W 036°48'1 0.7 27.0
2014-Aug-19 10:24N 27°24' W 036°48'0 0.0 26.9
2014-Aug-19 09:02N 27°24' W 036°48'0 0.0 26.9
2014-Aug-19 09:00N 27°24' W 036°48'1 0.5 26.9
2014-Aug-19 07:48N 27°24' W 036°48'0 6.5 26.9
2014-Aug-19 07:44N 27°24' W 036°48'0 0.0 26.9
2014-Aug-19 07:23N 27°24' W 036°48'0 3.6 26.9
2014-Aug-19 07:21N 27°24' W 036°48'0 0.1 26.9
2014-Aug-19 06:06N 27°24' W 036°48'0 0.7
2014-Aug-19 05:27N 27°24' W 036°47'0 1.3 27.0
2014-Aug-19 05:21N 27°24' W 036°47'0 0.0 27.0
2014-Aug-19 03:50N 27°24' W 036°47'0 2.4 27.3
2014-Aug-19 03:47N 27°24' W 036°48'110.0 27.3
2014-Aug-19 03:42N 27°23' W 036°48'0 0.1 27.3
2014-Aug-19 01:23N 27°23' W 036°48'1 0.7 27.4
2014-Aug-19 00:36N 27°23' W 036°47'0 0.0 27.5
2014-Aug-18 23:48N 27°23' W 036°47'0 0.5 27.6
2014-Aug-18 22:53N 27°23' W 036°48'0 9.6
2014-Aug-18 22:51N 27°23' W 036°47'0 0.5 27.7
2014-Aug-18 22:06N 27°24' W 036°47'0 3.8 27.9
2014-Aug-18 21:59N 27°23' W 036°48'0 0.0 27.9
2014-Aug-18 21:50N 27°23' W 036°48'0 0.2 28.0
2014-Aug-18 20:45N 27°23' W 036°48'0 0.4 28.4
2014-Aug-18 20:08N 27°23' W 036°48'0 1.1 28.7
2014-Aug-18 20:02N 27°23' W 036°48'0 0.0 28.7
2014-Aug-18 19:24N 27°23' W 036°48'1 2.5 29.1
2014-Aug-18 19:06N 27°22' W 036°47'0 0.0 28.7
2014-Aug-18 17:44N 27°22' W 036°47'0 0.3 29.0
2014-Aug-18 17:23N 27°22' W 036°47'0 0.5 29.0
2014-Aug-18 17:02N 27°22' W 036°47'1 0.4 28.9
2014-Aug-18 15:21N 27°22' W 036°47'1 0.8 28.5
2014-Aug-18 14:08N 27°21' W 036°46'0 0.0 28.3
2014-Aug-18 13:23N 27°21' W 036°46'0 3.2 27.9
2014-Aug-18 13:20N 27°21' W 036°46'0 0.3 27.9
2014-Aug-18 12:29N 27°21' W 036°46'1 7.8 27.6
2014-Aug-18 12:23N 27°21' W 036°45'116.1 27.6
2014-Aug-18 12:21N 27°21' W 036°45'0 0.0 27.6
2014-Aug-18 11:38N 27°21' W 036°45'0 1.6
2014-Aug-18 11:36N 27°21' W 036°46'0 0.0 27.4
2014-Aug-18 10:50N 27°21' W 036°46'1 6.4 27.3
2014-Aug-18 10:45N 27°22' W 036°45'0 0.2 27.3
2014-Aug-18 09:30N 27°22' W 036°45'0 3.8 27.2
2014-Aug-18 09:24N 27°22' W 036°44'0 0.1 27.2
2014-Aug-18 07:57N 27°22' W 036°44'0 2.4 27.2
2014-Aug-18 07:53N 27°22' W 036°44'0 0.0
2014-Aug-18 07:47N 27°22' W 036°44'1 0.4 27.3
2014-Aug-18 06:20N 27°22' W 036°44'0 0.0 27.4
2014-Aug-18 06:08N 27°22' W 036°44'0 0.3
2014-Aug-18 05:38N 27°22' W 036°44'0 0.0
2014-Aug-18 05:36N 27°22' W 036°44'1 0.5 27.5
2014-Aug-18 04:00N 27°23' W 036°44'0 0.0 27.6
2014-Aug-18 03:53N 27°23' W 036°44'0 6.6 27.6
2014-Aug-18 03:51N 27°22' W 036°45'0 0.1 27.6
2014-Aug-18 00:59N 27°22' W 036°45'0 0.0 27.6
2014-Aug-18 00:08N 27°22' W 036°45'0 0.0
2014-Aug-18 00:06N 27°22' W 036°45'0 0.2 27.7
2014-Aug-17 23:20N 27°22' W 036°45'0 5.2 27.9
2014-Aug-17 23:15N 27°22' W 036°45'0 0.3 27.9
2014-Aug-17 22:23N 27°22' W 036°45'0 2.4 28.2
2014-Aug-17 22:20N 27°22' W 036°45'0 0.0 28.2
2014-Aug-17 21:08N 27°22' W 036°45'1 1.5 28.3
2014-Aug-17 20:33N 27°21' W 036°45'0 0.0 28.4
2014-Aug-17 19:36N 27°21' W 036°45'0 4.9 28.5
2014-Aug-17 19:33N 27°21' W 036°45'0 1.8 28.5
2014-Aug-17 19:29N 27°21' W 036°45'0 0.0 28.5
2014-Aug-17 17:53N 27°21' W 036°45'0 0.0 29.2
2014-Aug-17 17:50N 27°21' W 036°45'0 6.6 29.2
2014-Aug-17 17:48N 27°21' W 036°45'0 0.0 29.2
2014-Aug-17 17:11N 27°21' W 036°45'0 0.0 29.4
2014-Aug-17 17:08N 27°21' W 036°45'1 0.4 29.2
2014-Aug-17 15:32N 27°21' W 036°45'1 0.3 28.6
2014-Aug-17 13:44N 27°20' W 036°44'0 2.6 28.1
2014-Aug-17 13:38N 27°21' W 036°44'011.0
2014-Aug-17 13:36N 27°20' W 036°44'0 0.0 28.0
2014-Aug-17 12:48N 27°20' W 036°44'0 5.5 27.7
2014-Aug-17 12:44N 27°20' W 036°44'0 0.0 27.7
2014-Aug-17 12:03N 27°20' W 036°44'0 1.5 27.4
2014-Aug-17 11:56N 27°20' W 036°44'0 0.1 27.4
2014-Aug-17 11:08N 27°20' W 036°44'0 3.4 27.1
2014-Aug-17 11:05N 27°20' W 036°44'1 1.2 27.1
2014-Aug-17 09:50N 27°20' W 036°43'0 0.0 27.0
2014-Aug-17 08:24N 27°20' W 036°43'0 0.2 27.0
2014-Aug-17 08:08N 27°20' W 036°42'0 3.6 27.0
2014-Aug-17 08:06N 27°20' W 036°42'0 0.2 27.1
2014-Aug-17 06:32N 27°20' W 036°42'0 3.5 27.2
2014-Aug-17 06:27N 27°20' W 036°42'0 0.5 27.2
2014-Aug-17 05:51N 27°20' W 036°42'0 9.0 27.3
2014-Aug-17 05:48N 27°20' W 036°42'0 0.0 27.3
2014-Aug-17 04:08N 27°20' W 036°42'0 1.2 27.6
2014-Aug-17 04:02N 27°20' W 036°42'0 0.0 27.6
2014-Aug-17 01:18N 27°20' W 036°42'0 0.0 27.7
2014-Aug-17 00:23N 27°20' W 036°42'0 0.5 27.9
2014-Aug-16 23:36N 27°21' W 036°43'0 0.0 28.0
2014-Aug-16 23:33N 27°21' W 036°43'0 2.6 28.0
2014-Aug-16 23:30N 27°21' W 036°42'0 0.3 28.0
2014-Aug-16 22:48N 27°21' W 036°43'0 2.4 28.0
2014-Aug-16 22:44N 27°20' W 036°43'0 3.9 28.0
2014-Aug-16 22:39N 27°20' W 036°43'0 0.0 28.0
2014-Aug-16 21:59N 27°20' W 036°43'0 0.4 28.1
2014-Aug-16 21:15N 27°20' W 036°43'0 1.9 28.1
2014-Aug-16 21:03N 27°20' W 036°43'1 0.5 28.2
2014-Aug-16 19:51N 27°20' W 036°43'0 0.0 28.5
2014-Aug-16 19:45N 27°20' W 036°43'0 0.0 28.5
2014-Aug-16 19:27N 27°20' W 036°43'0 0.2 28.8
2014-Aug-16 18:14N 27°20' W 036°43'0 0.6 28.7
2014-Aug-16 18:06N 27°20' W 036°43'1 1.4 28.8
2014-Aug-16 17:23N 27°19' W 036°43'0 3.3 28.9
2014-Aug-16 17:18N 27°19' W 036°42'0 0.0 28.9
2014-Aug-16 15:44N 27°19' W 036°42'0 0.2 29.0
2014-Aug-16 13:59N 27°19' W 036°42'0 0.0 28.7
2014-Aug-16 13:56N 27°19' W 036°42'0 0.0
2014-Aug-16 12:23N 27°19' W 036°42'0 4.4 27.4
2014-Aug-16 12:20N 27°19' W 036°42'0 5.8 27.2
2014-Aug-16 12:17N 27°19' W 036°42'0 0.2 27.2
2014-Aug-16 11:26N 27°19' W 036°42'0 0.0 26.9
2014-Aug-16 10:44N 27°19' W 036°42'1 8.7 26.7
2014-Aug-16 10:38N 27°18' W 036°42'0 0.0
2014-Aug-16 08:53N 27°18' W 036°42'0 1.0 26.6
2014-Aug-16 08:35N 27°18' W 036°41'0 2.2 26.6
2014-Aug-16 08:26N 27°18' W 036°42'1 6.3 26.6
2014-Aug-16 08:18N 27°17' W 036°41'0 0.0 26.6
2014-Aug-16 07:15N 27°17' W 036°41'0 0.9 26.6
2014-Aug-16 06:57N 27°18' W 036°41'0 1.6 26.6
2014-Aug-16 06:51N 27°17' W 036°41'0 0.0 26.6
2014-Aug-16 06:44N 27°17' W 036°41'1 4.1 26.6
2014-Aug-16 06:36N 27°18' W 036°40'0 0.0 26.6
2014-Aug-16 06:00N 27°18' W 036°40'0 0.0 26.6
2014-Aug-16 05:57N 27°18' W 036°40'0 4.8 26.6
2014-Aug-16 05:53N 27°17' W 036°40'0 0.0
2014-Aug-16 04:20N 27°17' W 036°40'1 5.7 26.7
2014-Aug-16 04:12N 27°18' W 036°39'0 0.0 26.7
2014-Aug-16 00:50N 27°18' W 036°39'0 0.2 26.9
2014-Aug-16 00:02N 27°18' W 036°39'0 5.3 27.0
2014-Aug-15 23:59N 27°18' W 036°40'0 1.6 27.0
2014-Aug-15 23:53N 27°18' W 036°40'0 0.0 27.0
2014-Aug-15 23:08N 27°18' W 036°40'0 0.0 27.2
2014-Aug-15 23:03N 27°18' W 036°40'0 7.6 27.2
2014-Aug-15 23:00N 27°18' W 036°39'0 0.0 27.2
2014-Aug-15 22:21N 27°18' W 036°39'0 1.3 27.3
2014-Aug-15 22:15N 27°18' W 036°39'0 0.0 27.3
2014-Aug-15 21:44N 27°18' W 036°39'1 0.5 27.6
2014-Aug-15 20:18N 27°18' W 036°40'0 1.3 28.6
2014-Aug-15 19:57N 27°18' W 036°41'022.7 28.5
2014-Aug-15 19:56N 27°18' W 036°40'0 0.0 28.5
2014-Aug-15 18:36N 27°18' W 036°40'0 1.2 28.5
2014-Aug-15 18:18N 27°18' W 036°41'0 0.7 28.6
2014-Aug-15 17:33N 27°17' W 036°40'0 0.0 29.0
2014-Aug-15 16:35N 27°17' W 036°40'0 0.0 29.4
2014-Aug-15 15:53N 27°17' W 036°40'1 0.3 28.7
2014-Aug-15 14:11N 27°17' W 036°39'0 0.3 27.8
2014-Aug-15 12:42N 27°17' W 036°39'0 4.8 27.0
2014-Aug-15 12:36N 27°17' W 036°40'0 0.1 26.9
2014-Aug-15 11:51N 27°17' W 036°40'0 4.8
2014-Aug-15 11:50N 27°17' W 036°40'0 1.0 26.7
2014-Aug-15 11:45N 27°17' W 036°40'0 0.0 26.7
2014-Aug-15 11:05N 27°17' W 036°40'1 6.1 26.5
2014-Aug-15 10:57N 27°16' W 036°39'0 0.0 26.5
2014-Aug-15 09:26N 27°16' W 036°39'0 0.8 26.5
2014-Aug-15 09:03N 27°16' W 036°39'0 0.5 26.5
2014-Aug-15 08:35N 27°16' W 036°39'1 0.9 26.5
2014-Aug-15 07:47N 27°16' W 036°39'0 0.6 26.5
2014-Aug-15 07:23N 27°15' W 036°39'0 0.3 26.5
2014-Aug-15 06:53N 27°16' W 036°38'0 1.9 26.5
2014-Aug-15 06:47N 27°15' W 036°38'0 0.0 26.5
2014-Aug-15 06:14N 27°15' W 036°38'1 7.7 26.5
2014-Aug-15 06:06N 27°16' W 036°37'0 0.0 26.5
2014-Aug-15 05:12N 27°16' W 036°37'0 0.0 26.5
2014-Aug-15 04:33N 27°16' W 036°37'0 2.1 26.5
2014-Aug-15 04:30N 27°16' W 036°37'0 6.7 26.5
2014-Aug-15 04:26N 27°15' W 036°37'0 0.0 26.5
2014-Aug-15 04:23N 27°15' W 036°37'0 0.0 26.5
2014-Aug-15 02:51N 27°15' W 036°37'0 0.1 26.6
2014-Aug-15 01:08N 27°15' W 036°36'126.6 26.6
2014-Aug-15 01:05N 27°16' W 036°35'0 0.0 26.6
2014-Aug-15 00:23N 27°16' W 036°35'0 0.5 26.6
2014-Aug-14 23:30N 27°16' W 036°36'1 5.7 26.6
2014-Aug-14 23:24N 27°16' W 036°36'0 0.1 26.6
2014-Aug-14 22:39N 27°16' W 036°37'0 3.6 26.6
2014-Aug-14 22:33N 27°16' W 036°37'0 0.0 26.6
2014-Aug-14 22:15N 27°16' W 036°37'0 0.5 26.7
2014-Aug-14 21:48N 27°16' W 036°37'0 0.4 26.7
2014-Aug-14 20:44N 27°16' W 036°36'1 1.9 26.8
2014-Aug-14 20:26N 27°16' W 036°37'1 3.8 26.8
2014-Aug-14 20:08N 27°16' W 036°38'0 0.0 26.8
2014-Aug-14 19:05N 27°16' W 036°38'1 0.9 26.9
2014-Aug-14 18:30N 27°16' W 036°37'0 0.5 26.9
2014-Aug-14 17:44N 27°16' W 036°37'0 0.0 26.9
2014-Aug-14 17:20N 27°16' W 036°37'1 1.6 26.9
2014-Aug-14 16:47N 27°16' W 036°38'1 1.8 26.8
2014-Aug-14 16:06N 27°15' W 036°39'2 1.2 26.7
2014-Aug-14 14:23N 27°15' W 036°37'0 0.0 26.7
2014-Aug-14 13:53N 27°15' W 036°37'0 0.0 26.6
2014-Aug-14 13:08N 27°15' W 036°37'1 1.0 26.6
2014-Aug-14 12:08N 27°15' W 036°36'117.1 26.5
2014-Aug-14 12:05N 27°15' W 036°37'0 0.0 26.5
2014-Aug-14 11:26N 27°15' W 036°37'0 6.4 26.4
2014-Aug-14 11:23N 27°15' W 036°37'115.2 26.4
2014-Aug-14 11:20N 27°14' W 036°36'0 0.2 26.4
2014-Aug-14 09:53N 27°14' W 036°36'0 1.2 26.4
2014-Aug-14 09:29N 27°14' W 036°37'1 3.9 26.4
2014-Aug-14 09:21N 27°14' W 036°36'0 0.0 26.4
2014-Aug-14 08:48N 27°14' W 036°36'0 3.4 26.4
2014-Aug-14 08:45N 27°14' W 036°37'0 0.6 26.4
2014-Aug-14 08:18N 27°14' W 036°36'0 0.7 26.4
2014-Aug-14 07:47N 27°14' W 036°36'1 1.1 26.4
2014-Aug-14 07:06N 27°13' W 036°35'0 3.8 26.4
2014-Aug-14 07:00N 27°14' W 036°35'0 0.0 26.4
2014-Aug-14 06:38N 27°14' W 036°35'1 2.6 26.4
2014-Aug-14 06:24N 27°13' W 036°35'0 0.0 26.4
2014-Aug-14 06:08N 27°13' W 036°35'0 0.0 26.4
2014-Aug-14 05:27N 27°13' W 036°35'220.0 26.4
2014-Aug-14 05:20N 27°15' W 036°33'0 0.0 26.4
2014-Aug-14 04:42N 27°15' W 036°33'0 0.0 26.4
2014-Aug-14 04:36N 27°15' W 036°33'0 0.0 26.4
2014-Aug-14 04:33N 27°15' W 036°33'0 0.0 26.4
2014-Aug-14 03:03N 27°15' W 036°33'1 0.6 26.5
2014-Aug-14 01:23N 27°14' W 036°34'0 0.7
2014-Aug-14 00:42N 27°14' W 036°34'0 0.3 26.6
2014-Aug-13 23:51N 27°14' W 036°34'0 0.2 26.6
2014-Aug-13 23:02N 27°14' W 036°34'0 1.0 26.6
2014-Aug-13 22:57N 27°14' W 036°34'0 3.1 26.6
2014-Aug-13 22:53N 27°14' W 036°34'0 0.0 26.6
2014-Aug-13 22:08N 27°14' W 036°34'0 7.3 26.6
2014-Aug-13 22:05N 27°14' W 036°34'1 0.5 26.6
2014-Aug-13 21:05N 27°13' W 036°34'0 0.0 26.7
2014-Aug-13 20:57N 27°13' W 036°34'0 0.4 26.7
2014-Aug-13 20:18N 27°14' W 036°34'1 0.8 26.7
2014-Aug-13 19:27N 27°14' W 036°33'0 0.0 26.7
2014-Aug-13 19:21N 27°14' W 036°33'1 0.9 26.7
2014-Aug-13 18:38N 27°14' W 036°34'0 0.3 26.8
2014-Aug-13 17:53N 27°14' W 036°34'1 9.6 26.9
2014-Aug-13 17:48N 27°13' W 036°33'0 0.0 26.9
2014-Aug-13 16:59N 27°13' W 036°33'0 0.5 26.9
2014-Aug-13 16:17N 27°13' W 036°33'0 0.0 26.9
2014-Aug-13 16:14N 27°13' W 036°33'1 0.4 26.9
2014-Aug-13 14:35N 27°13' W 036°34'0 1.3 26.8
2014-Aug-13 14:12N 27°13' W 036°33'   26.8

Dump ship's entire track history